createdAt,value
2022-08-29T00:00:37.371Z,17.86
2022-08-29T00:01:41.711Z,17.84
2022-08-29T00:02:46.248Z,17.84
2022-08-29T00:03:50.543Z,17.85
2022-08-29T00:04:54.904Z,17.86
2022-08-29T00:05:59.312Z,17.86
2022-08-29T00:07:03.700Z,17.87
2022-08-29T00:08:08.098Z,17.87
2022-08-29T00:09:12.398Z,17.87
2022-08-29T00:10:16.862Z,17.87
2022-08-29T00:11:21.114Z,17.87
2022-08-29T00:12:25.436Z,17.86
2022-08-29T00:13:29.881Z,17.85
2022-08-29T00:14:34.190Z,17.85
2022-08-29T00:15:44.621Z,17.86
2022-08-29T00:16:43.021Z,17.86
2022-08-29T00:17:47.279Z,17.85
2022-08-29T00:18:51.594Z,17.85
2022-08-29T00:19:56.021Z,17.85
2022-08-29T00:21:00.397Z,17.86
2022-08-29T00:22:04.773Z,17.87
2022-08-29T00:23:09.165Z,17.87
2022-08-29T00:24:13.453Z,17.85
2022-08-29T00:25:17.868Z,17.83
2022-08-29T00:26:22.217Z,17.82
2022-08-29T00:27:26.698Z,17.81
2022-08-29T00:28:30.937Z,17.80
2022-08-29T00:29:35.352Z,17.80
2022-08-29T00:30:39.726Z,17.81
2022-08-29T00:31:44.224Z,17.81
2022-08-29T00:32:48.426Z,17.81
2022-08-29T00:33:52.850Z,17.81
2022-08-29T00:34:57.219Z,17.82
2022-08-29T00:36:01.584Z,17.81
2022-08-29T00:37:05.978Z,17.82
2022-08-29T00:38:10.450Z,17.82
2022-08-29T00:39:14.788Z,17.83
2022-08-29T00:40:19.187Z,17.82
2022-08-29T00:41:23.467Z,17.83
2022-08-29T00:42:27.885Z,17.82
2022-08-29T00:43:32.260Z,17.83
2022-08-29T00:44:36.629Z,17.81
2022-08-29T00:45:41.116Z,17.78
2022-08-29T00:46:45.343Z,17.74
2022-08-29T00:47:49.827Z,17.72
2022-08-29T00:48:54.664Z,17.72
2022-08-29T00:49:58.432Z,17.71
2022-08-29T00:51:02.789Z,17.71
2022-08-29T00:52:07.138Z,17.71
2022-08-29T00:53:11.519Z,17.70
2022-08-29T00:54:15.771Z,17.68
2022-08-29T00:55:23.137Z,17.68
2022-08-29T00:56:26.537Z,17.67
2022-08-29T00:57:30.925Z,17.68
2022-08-29T00:58:35.388Z,17.66
2022-08-29T00:59:39.672Z,17.67
2022-08-29T01:00:44.174Z,17.67
2022-08-29T01:01:48.461Z,17.67
2022-08-29T01:02:52.725Z,17.68
2022-08-29T01:03:57.036Z,17.69
2022-08-29T01:05:01.428Z,17.69
2022-08-29T01:06:05.703Z,17.68
2022-08-29T01:07:10.233Z,17.68
2022-08-29T01:08:14.708Z,17.68
2022-08-29T01:09:18.865Z,17.67
2022-08-29T01:10:23.208Z,17.67
2022-08-29T01:11:27.614Z,17.66
2022-08-29T01:12:31.977Z,17.67
2022-08-29T01:13:36.326Z,17.66
2022-08-29T01:14:40.616Z,17.64
2022-08-29T01:15:44.952Z,17.63
2022-08-29T01:16:49.381Z,17.64
2022-08-29T01:17:53.650Z,17.66
2022-08-29T01:18:57.968Z,17.67
2022-08-29T01:20:02.432Z,17.69
2022-08-29T01:21:06.805Z,17.69
2022-08-29T01:22:11.102Z,17.68
2022-08-29T01:23:15.445Z,17.68
2022-08-29T01:24:19.870Z,17.68
2022-08-29T01:25:24.172Z,17.68
2022-08-29T01:26:28.585Z,17.68
2022-08-29T01:27:32.884Z,17.68
2022-08-29T01:28:37.213Z,17.68
2022-08-29T01:29:41.619Z,17.68
2022-08-29T01:30:45.863Z,17.68
2022-08-29T01:31:57.451Z,17.69
2022-08-29T01:32:54.675Z,17.69
2022-08-29T01:33:59.004Z,17.70
2022-08-29T01:35:03.334Z,17.68
2022-08-29T01:36:07.657Z,17.68
2022-08-29T01:37:12.055Z,17.68
2022-08-29T01:38:16.375Z,17.70
2022-08-29T01:39:20.786Z,17.71
2022-08-29T01:40:25.234Z,17.71
2022-08-29T01:41:29.449Z,17.72
2022-08-29T01:42:36.517Z,17.71
2022-08-29T01:43:38.212Z,17.71
2022-08-29T01:44:42.678Z,17.71
2022-08-29T01:45:47.027Z,17.71
2022-08-29T01:46:51.252Z,17.72
2022-08-29T01:47:55.602Z,17.72
2022-08-29T01:48:59.946Z,17.72
2022-08-29T01:50:04.426Z,17.72
2022-08-29T01:51:08.683Z,17.72
2022-08-29T01:52:13.103Z,17.72
2022-08-29T01:53:17.423Z,17.72
2022-08-29T01:54:21.752Z,17.72
2022-08-29T01:55:26.108Z,17.73
2022-08-29T01:56:30.433Z,17.73
2022-08-29T01:57:34.776Z,17.74
2022-08-29T01:58:39.159Z,17.73
2022-08-29T01:59:43.607Z,17.72
2022-08-29T02:00:47.945Z,17.70
2022-08-29T02:01:52.307Z,17.68
2022-08-29T02:02:56.570Z,17.67
2022-08-29T02:04:00.912Z,17.65
2022-08-29T02:05:05.241Z,17.64
2022-08-29T02:06:09.583Z,17.64
2022-08-29T02:07:13.988Z,17.65
2022-08-29T02:08:18.441Z,17.65
2022-08-29T02:09:22.779Z,17.65
2022-08-29T02:10:27.126Z,17.65
2022-08-29T02:11:31.415Z,17.64
2022-08-29T02:12:35.762Z,17.64
2022-08-29T02:13:40.107Z,17.64
2022-08-29T02:14:44.518Z,17.64
2022-08-29T02:15:48.886Z,17.64
2022-08-29T02:16:53.172Z,17.62
2022-08-29T02:17:57.511Z,17.61
2022-08-29T02:19:01.857Z,17.61
2022-08-29T02:20:06.196Z,17.60
2022-08-29T02:21:10.621Z,17.59
2022-08-29T02:22:14.926Z,17.59
2022-08-29T02:23:30.499Z,17.59
2022-08-29T02:24:26.137Z,17.59
2022-08-29T02:25:28.030Z,17.59
2022-08-29T02:26:32.461Z,17.60
2022-08-29T02:27:36.822Z,17.59
2022-08-29T02:28:41.124Z,17.58
2022-08-29T02:29:45.546Z,17.57
2022-08-29T02:30:49.907Z,17.56
2022-08-29T02:31:54.155Z,17.54
2022-08-29T02:32:58.667Z,17.53
2022-08-29T02:34:02.948Z,17.53
2022-08-29T02:35:07.275Z,17.52
2022-08-29T02:36:11.593Z,17.51
2022-08-29T02:37:15.912Z,17.50
2022-08-29T02:38:20.268Z,17.50
2022-08-29T02:39:24.595Z,17.52
2022-08-29T02:40:31.779Z,17.52
2022-08-29T02:41:33.353Z,17.52
2022-08-29T02:42:37.708Z,17.53
2022-08-29T02:43:42.012Z,17.54
2022-08-29T02:44:46.442Z,17.54
2022-08-29T02:45:50.723Z,17.55
2022-08-29T02:46:55.347Z,17.56
2022-08-29T02:47:59.579Z,17.57
2022-08-29T02:49:03.895Z,17.57
2022-08-29T02:50:08.258Z,17.57
2022-08-29T02:51:12.613Z,17.57
2022-08-29T02:52:16.976Z,17.57
2022-08-29T02:53:21.278Z,17.57
2022-08-29T02:54:25.694Z,17.57
2022-08-29T02:55:29.974Z,17.57
2022-08-29T02:56:34.306Z,17.57
2022-08-29T02:57:41.612Z,17.58
2022-08-29T02:58:45.092Z,17.58
2022-08-29T02:59:49.441Z,17.60
2022-08-29T03:00:53.932Z,17.62
2022-08-29T03:01:58.272Z,17.63
2022-08-29T03:03:02.580Z,17.64
2022-08-29T03:04:06.954Z,17.64
2022-08-29T03:05:11.350Z,17.66
2022-08-29T03:06:15.724Z,17.65
2022-08-29T03:07:20.129Z,17.66
2022-08-29T03:08:24.494Z,17.66
2022-08-29T03:09:28.887Z,17.68
2022-08-29T03:10:33.317Z,17.69
2022-08-29T03:11:37.690Z,17.70
2022-08-29T03:12:42.066Z,17.71
2022-08-29T03:13:46.452Z,17.71
2022-08-29T03:14:50.780Z,17.71
2022-08-29T03:15:55.301Z,17.72
2022-08-29T03:16:59.687Z,17.72
2022-08-29T03:18:04.032Z,17.72
2022-08-29T03:19:08.396Z,17.73
2022-08-29T03:20:12.779Z,17.75
2022-08-29T03:21:17.185Z,17.75
2022-08-29T03:22:21.555Z,17.77
2022-08-29T03:23:25.914Z,17.79
2022-08-29T03:24:30.267Z,17.81
2022-08-29T03:25:34.636Z,17.83
2022-08-29T03:26:39.016Z,17.83
2022-08-29T03:27:43.430Z,17.85
2022-08-29T03:28:47.818Z,17.86
2022-08-29T03:29:52.192Z,17.88
2022-08-29T03:30:56.675Z,17.89
2022-08-29T03:32:00.942Z,17.88
2022-08-29T03:33:07.821Z,17.88
2022-08-29T03:34:09.725Z,17.88
2022-08-29T03:35:14.089Z,17.89
2022-08-29T03:36:18.462Z,17.90
2022-08-29T03:37:22.841Z,17.91
2022-08-29T03:38:27.244Z,17.91
2022-08-29T03:39:31.648Z,17.91
2022-08-29T03:40:36.118Z,17.91
2022-08-29T03:41:40.388Z,17.92
2022-08-29T03:42:44.740Z,17.93
2022-08-29T03:43:49.120Z,17.93
2022-08-29T03:44:53.514Z,17.92
2022-08-29T03:45:57.894Z,17.93
2022-08-29T03:47:02.303Z,17.93
2022-08-29T03:48:06.707Z,17.93
2022-08-29T03:49:11.064Z,17.92
2022-08-29T03:50:15.440Z,17.93
2022-08-29T03:51:19.816Z,17.94
2022-08-29T03:52:24.221Z,17.95
2022-08-29T03:53:28.602Z,17.96
2022-08-29T03:54:32.978Z,17.97
2022-08-29T03:55:37.363Z,17.98
2022-08-29T03:56:41.721Z,17.98
2022-08-29T03:57:46.105Z,17.98
2022-08-29T03:58:53.102Z,17.97
2022-08-29T03:59:54.835Z,17.97
2022-08-29T04:00:59.206Z,17.97
2022-08-29T04:02:03.726Z,17.96
2022-08-29T04:03:08.090Z,17.95
2022-08-29T04:04:12.373Z,17.95
2022-08-29T04:05:16.777Z,17.96
2022-08-29T04:06:21.169Z,17.97
2022-08-29T04:07:25.570Z,17.97
2022-08-29T04:08:29.918Z,17.98
2022-08-29T04:09:34.288Z,17.99
2022-08-29T04:10:38.680Z,18.00
2022-08-29T04:11:43.091Z,18.01
2022-08-29T04:12:51.215Z,18.02
2022-08-29T04:13:54.875Z,18.03
2022-08-29T04:14:58.373Z,18.05
2022-08-29T04:16:02.789Z,18.06
2022-08-29T04:17:07.122Z,18.07
2022-08-29T04:18:11.590Z,18.07
2022-08-29T04:19:15.861Z,18.08
2022-08-29T04:20:24.573Z,18.09
2022-08-29T04:21:24.605Z,18.10
2022-08-29T04:22:28.986Z,18.10
2022-08-29T04:23:33.354Z,18.11
2022-08-29T04:24:37.665Z,18.11
2022-08-29T04:25:42.111Z,18.12
2022-08-29T04:26:46.505Z,18.13
2022-08-29T04:27:50.890Z,18.13
2022-08-29T04:28:55.303Z,18.13
2022-08-29T04:29:59.663Z,18.14
2022-08-29T04:31:04.184Z,18.14
2022-08-29T04:32:08.465Z,18.15
2022-08-29T04:33:12.856Z,18.16
2022-08-29T04:34:17.190Z,18.17
2022-08-29T04:35:21.627Z,18.17
2022-08-29T04:36:26.035Z,18.17
2022-08-29T04:37:30.406Z,18.18
2022-08-29T04:38:34.776Z,18.18
2022-08-29T04:39:39.188Z,18.18
2022-08-29T04:40:43.694Z,18.18
2022-08-29T04:41:47.951Z,18.19
2022-08-29T04:42:52.363Z,18.19
2022-08-29T04:43:56.761Z,18.19
2022-08-29T04:45:01.136Z,18.20
2022-08-29T04:46:05.632Z,18.21
2022-08-29T04:47:09.943Z,18.21
2022-08-29T04:48:14.445Z,18.22
2022-08-29T04:49:18.702Z,18.23
2022-08-29T04:50:23.107Z,18.24
2022-08-29T04:51:27.487Z,18.25
2022-08-29T04:52:31.893Z,18.26
2022-08-29T04:53:36.358Z,18.27
2022-08-29T04:54:40.711Z,18.27
2022-08-29T04:55:45.116Z,18.28
2022-08-29T04:56:49.575Z,18.28
2022-08-29T04:57:53.899Z,18.29
2022-08-29T04:58:58.291Z,18.29
2022-08-29T05:00:02.697Z,18.29
2022-08-29T05:01:07.056Z,18.28
2022-08-29T05:02:11.425Z,18.28
2022-08-29T05:03:15.942Z,18.29
2022-08-29T05:04:20.241Z,18.28
2022-08-29T05:05:24.644Z,18.26
2022-08-29T05:06:29.026Z,18.23
2022-08-29T05:07:33.518Z,18.23
2022-08-29T05:08:37.966Z,18.22
2022-08-29T05:09:42.294Z,18.22
2022-08-29T05:10:46.707Z,18.24
2022-08-29T05:11:51.066Z,18.23
2022-08-29T05:12:55.439Z,18.24
2022-08-29T05:13:59.849Z,18.22
2022-08-29T05:15:04.200Z,18.22
2022-08-29T05:16:08.605Z,18.22
2022-08-29T05:17:12.931Z,18.22
2022-08-29T05:18:17.314Z,18.22
2022-08-29T05:19:21.666Z,18.23
2022-08-29T05:20:25.973Z,18.24
2022-08-29T05:21:30.405Z,18.24
2022-08-29T05:22:34.889Z,18.23
2022-08-29T05:23:39.202Z,18.22
2022-08-29T05:24:43.595Z,18.22
2022-08-29T05:25:47.968Z,18.23
2022-08-29T05:26:52.330Z,18.24
2022-08-29T05:27:56.721Z,18.23
2022-08-29T05:29:01.105Z,18.23
2022-08-29T05:30:05.511Z,18.24
2022-08-29T05:31:13.591Z,18.23
2022-08-29T05:32:14.283Z,18.22
2022-08-29T05:33:18.677Z,18.21
2022-08-29T05:34:33.914Z,18.20
2022-08-29T05:35:27.423Z,18.20
2022-08-29T05:36:31.852Z,18.18
2022-08-29T05:37:36.209Z,18.17
2022-08-29T05:38:40.582Z,18.16
2022-08-29T05:39:45.054Z,18.15
2022-08-29T05:40:49.329Z,18.15
2022-08-29T05:41:53.756Z,18.16
2022-08-29T05:42:58.168Z,18.16
2022-08-29T05:44:02.613Z,18.14
2022-08-29T05:45:06.961Z,18.13
2022-08-29T05:46:11.465Z,18.12
2022-08-29T05:47:15.700Z,18.10
2022-08-29T05:48:20.087Z,18.09
2022-08-29T05:49:24.438Z,18.08
2022-08-29T05:50:28.820Z,18.09
2022-08-29T05:51:38.801Z,18.10
2022-08-29T05:52:37.536Z,18.12
2022-08-29T05:53:41.933Z,18.12
2022-08-29T05:54:46.326Z,18.13
2022-08-29T05:55:50.734Z,18.17
2022-08-29T05:56:55.128Z,18.29
2022-08-29T05:57:59.506Z,18.42
2022-08-29T05:59:03.900Z,18.50
2022-08-29T06:00:08.272Z,18.53
2022-08-29T06:01:12.714Z,18.56
2022-08-29T06:02:17.199Z,18.58
2022-08-29T06:03:21.598Z,18.60
2022-08-29T06:04:25.845Z,18.62
2022-08-29T06:05:30.207Z,18.62
2022-08-29T06:06:34.594Z,18.63
2022-08-29T06:07:38.994Z,18.64
2022-08-29T06:08:43.400Z,18.63
2022-08-29T06:09:47.775Z,18.63
2022-08-29T06:10:52.173Z,18.62
2022-08-29T06:11:56.571Z,18.62
2022-08-29T06:13:00.958Z,18.62
2022-08-29T06:14:05.355Z,18.61
2022-08-29T06:15:09.728Z,18.63
2022-08-29T06:16:14.165Z,18.65
2022-08-29T06:17:18.524Z,18.68
2022-08-29T06:18:35.307Z,18.70
2022-08-29T06:19:27.344Z,18.71
2022-08-29T06:20:31.738Z,18.70
2022-08-29T06:21:36.103Z,18.70
2022-08-29T06:22:40.727Z,18.69
2022-08-29T06:23:44.909Z,18.68
2022-08-29T06:24:49.304Z,18.68
2022-08-29T06:25:53.711Z,18.69
2022-08-29T06:26:58.144Z,18.69
2022-08-29T06:28:02.518Z,18.68
2022-08-29T06:29:06.909Z,18.68
2022-08-29T06:30:11.299Z,18.68
2022-08-29T06:31:15.789Z,18.70
2022-08-29T06:32:20.071Z,18.73
2022-08-29T06:33:24.469Z,18.77
2022-08-29T06:34:28.860Z,18.81
2022-08-29T06:35:33.254Z,18.85
2022-08-29T06:36:37.660Z,18.90
2022-08-29T06:37:42.061Z,18.94
2022-08-29T06:38:46.464Z,18.99
2022-08-29T06:39:50.882Z,19.03
2022-08-29T06:40:55.302Z,19.07
2022-08-29T06:41:59.666Z,19.09
2022-08-29T06:43:04.047Z,19.11
2022-08-29T06:44:08.442Z,19.12
2022-08-29T06:45:12.846Z,19.12
2022-08-29T06:46:17.306Z,19.14
2022-08-29T06:47:21.631Z,19.20
2022-08-29T06:48:29.448Z,19.28
2022-08-29T06:49:30.421Z,19.35
2022-08-29T06:50:34.844Z,19.41
2022-08-29T06:51:39.240Z,19.46
2022-08-29T06:52:43.626Z,19.47
2022-08-29T06:53:48.059Z,19.49
2022-08-29T06:54:52.834Z,19.49
2022-08-29T06:55:56.838Z,19.49
2022-08-29T06:57:01.264Z,19.48
2022-08-29T06:58:05.660Z,19.49
2022-08-29T06:59:10.062Z,19.47
2022-08-29T07:00:22.424Z,19.46
2022-08-29T07:01:18.943Z,19.48
2022-08-29T07:02:23.351Z,19.50
2022-08-29T07:03:27.669Z,19.53
2022-08-29T07:04:32.071Z,19.56
2022-08-29T07:05:36.459Z,19.60
2022-08-29T07:06:40.883Z,19.62
2022-08-29T07:07:45.284Z,19.61
2022-08-29T07:08:55.748Z,19.59
2022-08-29T07:09:54.211Z,19.57
2022-08-29T07:10:58.552Z,19.57
2022-08-29T07:12:02.948Z,19.54
2022-08-29T07:13:07.430Z,19.52
2022-08-29T07:14:11.771Z,19.48
2022-08-29T07:15:16.143Z,19.43
2022-08-29T07:16:20.742Z,19.40
2022-08-29T07:17:26.163Z,19.38
2022-08-29T07:18:29.407Z,19.37
2022-08-29T07:19:33.795Z,19.36
2022-08-29T07:20:38.306Z,19.33
2022-08-29T07:21:42.567Z,19.30
2022-08-29T07:22:47.024Z,19.28
2022-08-29T07:23:51.408Z,19.27
2022-08-29T07:24:55.802Z,19.26
2022-08-29T07:26:00.180Z,19.25
2022-08-29T07:27:04.693Z,19.24
2022-08-29T07:28:09.047Z,19.22
2022-08-29T07:29:13.473Z,19.21
2022-08-29T07:30:17.871Z,19.20
2022-08-29T07:31:22.390Z,19.21
2022-08-29T07:32:26.785Z,19.23
2022-08-29T07:33:31.205Z,19.24
2022-08-29T07:34:35.547Z,19.27
2022-08-29T07:35:39.937Z,19.28
2022-08-29T07:36:44.324Z,19.27
2022-08-29T07:37:50.795Z,19.27
2022-08-29T07:38:53.168Z,19.25
2022-08-29T07:39:57.646Z,19.22
2022-08-29T07:41:02.081Z,19.19
2022-08-29T07:42:06.451Z,19.16
2022-08-29T07:43:10.863Z,19.14
2022-08-29T07:44:15.248Z,19.12
2022-08-29T07:45:19.658Z,19.10
2022-08-29T07:46:24.068Z,19.08
2022-08-29T07:47:28.440Z,19.06
2022-08-29T07:48:32.845Z,19.04
2022-08-29T07:49:41.304Z,19.01
2022-08-29T07:50:41.712Z,18.98
2022-08-29T07:51:46.049Z,18.93
2022-08-29T07:52:50.498Z,18.87
2022-08-29T07:53:54.861Z,18.84
2022-08-29T07:54:59.282Z,18.84
2022-08-29T07:56:03.744Z,18.85
2022-08-29T07:57:07.972Z,18.87
2022-08-29T07:58:12.422Z,18.93
2022-08-29T07:59:16.909Z,19.00
2022-08-29T08:00:21.407Z,19.07
2022-08-29T08:01:25.732Z,19.12
2022-08-29T08:02:30.124Z,19.16
2022-08-29T08:03:34.478Z,19.18
2022-08-29T08:04:38.879Z,19.22
2022-08-29T08:05:43.298Z,19.28
2022-08-29T08:06:47.676Z,19.34
2022-08-29T08:07:55.510Z,19.40
2022-08-29T08:08:56.456Z,19.44
2022-08-29T08:10:00.892Z,19.48
2022-08-29T08:11:05.278Z,19.51
2022-08-29T08:12:09.663Z,19.53
2022-08-29T08:13:14.321Z,19.55
2022-08-29T08:14:18.495Z,19.57
2022-08-29T08:15:22.892Z,19.59
2022-08-29T08:16:27.356Z,19.60
2022-08-29T08:17:31.758Z,19.62
2022-08-29T08:18:36.268Z,19.65
2022-08-29T08:19:40.659Z,19.69
2022-08-29T08:20:46.063Z,19.73
2022-08-29T08:21:50.338Z,19.78
2022-08-29T08:22:54.493Z,19.80
2022-08-29T08:23:58.934Z,19.79
2022-08-29T08:25:03.315Z,19.78
2022-08-29T08:26:07.727Z,19.80
2022-08-29T08:27:12.132Z,19.82
2022-08-29T08:28:16.722Z,19.85
2022-08-29T08:29:20.960Z,19.88
2022-08-29T08:30:25.466Z,19.89
2022-08-29T08:31:29.835Z,19.88
2022-08-29T08:32:34.183Z,19.84
2022-08-29T08:33:38.597Z,19.84
2022-08-29T08:34:43.053Z,19.81
2022-08-29T08:35:47.377Z,19.77
2022-08-29T08:36:51.809Z,19.77
2022-08-29T08:37:56.213Z,19.75
2022-08-29T08:39:00.624Z,19.77
2022-08-29T08:40:05.053Z,19.79
2022-08-29T08:41:09.426Z,19.83
2022-08-29T08:42:13.819Z,19.87
2022-08-29T08:43:20.718Z,19.90
2022-08-29T08:44:22.745Z,19.95
2022-08-29T08:45:27.103Z,20.01
2022-08-29T08:46:31.566Z,20.06
2022-08-29T08:47:35.878Z,20.07
2022-08-29T08:48:40.279Z,20.07
2022-08-29T08:49:44.690Z,20.09
2022-08-29T08:50:53.801Z,20.15
2022-08-29T08:51:53.489Z,20.20
2022-08-29T08:52:58.000Z,20.22
2022-08-29T08:54:02.356Z,20.25
2022-08-29T08:55:06.759Z,20.32
2022-08-29T08:56:11.208Z,20.40
2022-08-29T08:57:15.592Z,20.45
2022-08-29T08:58:19.977Z,20.46
2022-08-29T08:59:24.378Z,20.47
2022-08-29T09:00:28.812Z,20.48
2022-08-29T09:01:33.374Z,20.45
2022-08-29T09:02:37.712Z,20.43
2022-08-29T09:03:42.052Z,20.43
2022-08-29T09:04:46.470Z,20.46
2022-08-29T09:05:50.903Z,20.46
2022-08-29T09:06:55.348Z,20.46
2022-08-29T09:07:59.751Z,20.46
2022-08-29T09:09:04.138Z,20.44
2022-08-29T09:10:08.565Z,20.45
2022-08-29T09:11:12.976Z,20.49
2022-08-29T09:12:17.392Z,20.53
2022-08-29T09:13:21.788Z,20.54
2022-08-29T09:14:26.316Z,20.54
2022-08-29T09:15:32.961Z,20.54
2022-08-29T09:16:35.222Z,20.53
2022-08-29T09:17:39.508Z,20.52
2022-08-29T09:18:43.905Z,20.57
2022-08-29T09:19:48.333Z,20.63
2022-08-29T09:20:52.898Z,20.67
2022-08-29T09:21:57.252Z,20.68
2022-08-29T09:23:01.668Z,20.69
2022-08-29T09:24:06.108Z,20.71
2022-08-29T09:25:10.536Z,20.73
2022-08-29T09:26:14.980Z,20.74
2022-08-29T09:27:19.407Z,20.73
2022-08-29T09:28:23.806Z,20.71
2022-08-29T09:29:28.202Z,20.70
2022-08-29T09:30:32.600Z,20.72
2022-08-29T09:31:37.082Z,20.73
2022-08-29T09:32:41.410Z,20.72
2022-08-29T09:33:45.776Z,20.69
2022-08-29T09:35:07.958Z,20.62
2022-08-29T09:35:54.581Z,20.55
2022-08-29T09:36:58.974Z,20.50
2022-08-29T09:38:03.406Z,20.47
2022-08-29T09:39:07.818Z,20.45
2022-08-29T09:40:12.384Z,20.43
2022-08-29T09:41:16.681Z,20.41
2022-08-29T09:42:21.096Z,20.38
2022-08-29T09:43:25.520Z,20.37
2022-08-29T09:44:29.935Z,20.37
2022-08-29T09:45:34.347Z,20.37
2022-08-29T09:46:38.705Z,20.37
2022-08-29T09:47:43.108Z,20.37
2022-08-29T09:48:47.551Z,20.38
2022-08-29T09:49:51.984Z,20.38
2022-08-29T09:50:56.384Z,20.35
2022-08-29T09:52:00.816Z,20.34
2022-08-29T09:53:08.163Z,20.35
2022-08-29T09:54:09.744Z,20.36
2022-08-29T09:55:14.110Z,20.37
2022-08-29T09:56:18.509Z,20.36
2022-08-29T09:57:22.926Z,20.35
2022-08-29T09:58:27.326Z,20.38
2022-08-29T09:59:31.751Z,20.44
2022-08-29T10:00:36.154Z,20.51
2022-08-29T10:01:40.646Z,20.59
2022-08-29T10:02:45.101Z,20.66
2022-08-29T10:03:49.422Z,20.71
2022-08-29T10:04:53.855Z,20.73
2022-08-29T10:05:58.249Z,20.72
2022-08-29T10:07:02.656Z,20.72
2022-08-29T10:08:07.075Z,20.73
2022-08-29T10:09:11.513Z,20.71
2022-08-29T10:10:15.946Z,20.70
2022-08-29T10:11:20.367Z,20.68
2022-08-29T10:12:24.798Z,20.67
2022-08-29T10:13:30.123Z,20.67
2022-08-29T10:14:33.649Z,20.64
2022-08-29T10:15:50.380Z,20.63
2022-08-29T10:16:42.492Z,20.62
2022-08-29T10:17:46.886Z,20.62
2022-08-29T10:18:51.302Z,20.61
2022-08-29T10:19:55.706Z,20.61
2022-08-29T10:21:00.123Z,20.61
2022-08-29T10:22:04.530Z,20.62
2022-08-29T10:23:08.919Z,20.64
2022-08-29T10:24:15.926Z,20.64
2022-08-29T10:25:17.766Z,20.61
2022-08-29T10:26:22.195Z,20.58
2022-08-29T10:27:26.604Z,20.53
2022-08-29T10:28:31.050Z,20.51
2022-08-29T10:29:35.479Z,20.50
2022-08-29T10:30:39.894Z,20.50
2022-08-29T10:31:44.338Z,20.51
2022-08-29T10:32:48.815Z,20.55
2022-08-29T10:33:53.176Z,20.58
2022-08-29T10:34:57.599Z,20.61
2022-08-29T10:36:02.006Z,20.66
2022-08-29T10:37:06.411Z,20.69
2022-08-29T10:38:10.852Z,20.71
2022-08-29T10:39:15.384Z,20.72
2022-08-29T10:40:19.793Z,20.73
2022-08-29T10:41:24.173Z,20.73
2022-08-29T10:42:28.699Z,20.73
2022-08-29T10:43:33.074Z,20.72
2022-08-29T10:44:37.477Z,20.71
2022-08-29T10:45:41.980Z,20.71
2022-08-29T10:46:46.308Z,20.69
2022-08-29T10:47:50.736Z,20.70
2022-08-29T10:48:55.268Z,20.67
2022-08-29T10:49:59.645Z,20.66
2022-08-29T10:51:04.096Z,20.65
2022-08-29T10:52:08.475Z,20.64
2022-08-29T10:53:13.015Z,20.62
2022-08-29T10:54:17.496Z,20.62
2022-08-29T10:55:21.861Z,20.63
2022-08-29T10:56:26.334Z,20.64
2022-08-29T10:57:30.719Z,20.66
2022-08-29T10:58:35.299Z,20.68
2022-08-29T10:59:39.678Z,20.69
2022-08-29T11:00:44.122Z,20.69
2022-08-29T11:01:48.480Z,20.71
2022-08-29T11:02:52.886Z,20.72
2022-08-29T11:03:57.347Z,20.73
2022-08-29T11:05:01.723Z,20.72
2022-08-29T11:06:06.190Z,20.70
2022-08-29T11:07:10.620Z,20.68
2022-08-29T11:08:16.374Z,20.68
2022-08-29T11:09:19.378Z,20.69
2022-08-29T11:10:23.776Z,20.69
2022-08-29T11:11:28.196Z,20.71
2022-08-29T11:12:32.573Z,20.72
2022-08-29T11:13:36.987Z,20.73
2022-08-29T11:14:41.431Z,20.74
2022-08-29T11:15:45.850Z,20.74
2022-08-29T11:16:50.317Z,20.73
2022-08-29T11:17:54.646Z,20.71
2022-08-29T11:18:59.060Z,20.69
2022-08-29T11:20:03.469Z,20.69
2022-08-29T11:21:08.032Z,20.69
2022-08-29T11:22:12.330Z,20.70
2022-08-29T11:23:16.745Z,20.72
2022-08-29T11:24:21.171Z,20.73
2022-08-29T11:25:25.619Z,20.74
2022-08-29T11:26:30.031Z,20.76
2022-08-29T11:27:34.466Z,20.81
2022-08-29T11:28:38.943Z,20.85
2022-08-29T11:29:43.301Z,20.91
2022-08-29T11:30:48.326Z,20.96
2022-08-29T11:31:52.149Z,21.03
2022-08-29T11:32:56.530Z,21.09
2022-08-29T11:34:01.016Z,21.14
2022-08-29T11:35:05.387Z,21.18
2022-08-29T11:36:09.827Z,21.21
2022-08-29T11:37:14.208Z,21.25
2022-08-29T11:38:18.630Z,21.26
2022-08-29T11:39:23.072Z,21.26
2022-08-29T11:41:32.082Z,21.27
2022-08-29T11:42:52.350Z,21.26
2022-08-29T11:43:40.762Z,21.25
2022-08-29T11:44:45.184Z,21.24
2022-08-29T11:45:49.595Z,21.21
2022-08-29T11:46:56.589Z,21.17
2022-08-29T11:47:58.409Z,21.14
2022-08-29T11:49:02.830Z,21.12
2022-08-29T11:50:07.238Z,21.13
2022-08-29T11:51:11.787Z,21.16
2022-08-29T11:52:18.882Z,21.18
2022-08-29T11:53:20.839Z,21.19
2022-08-29T11:54:25.343Z,21.20
2022-08-29T11:55:29.448Z,21.19
2022-08-29T11:56:33.864Z,21.19
2022-08-29T11:57:38.310Z,21.15
2022-08-29T11:58:42.713Z,21.10
2022-08-29T11:59:47.126Z,21.06
2022-08-29T12:00:51.657Z,21.00
2022-08-29T12:01:55.996Z,20.95
2022-08-29T12:03:00.375Z,20.90
2022-08-29T12:04:04.798Z,20.87
2022-08-29T12:05:09.219Z,20.84
2022-08-29T12:06:13.657Z,20.84
2022-08-29T12:07:18.073Z,20.82
2022-08-29T12:08:36.013Z,20.81
2022-08-29T12:09:26.903Z,20.81
2022-08-29T12:10:31.687Z,20.82
2022-08-29T12:11:35.791Z,20.85
2022-08-29T12:12:40.231Z,20.87
2022-08-29T12:13:44.637Z,20.90
2022-08-29T12:14:49.012Z,20.92
2022-08-29T12:15:53.517Z,20.96
2022-08-29T12:16:57.865Z,21.01
2022-08-29T12:18:03.909Z,21.06
2022-08-29T12:19:06.736Z,21.11
2022-08-29T12:20:11.179Z,21.17
2022-08-29T12:21:15.572Z,21.27
2022-08-29T12:22:22.409Z,21.34
2022-08-29T12:23:24.446Z,21.37
2022-08-29T12:24:28.969Z,21.38
2022-08-29T12:25:33.382Z,21.40
2022-08-29T12:26:37.792Z,21.43
2022-08-29T12:27:42.207Z,21.44
2022-08-29T12:28:46.634Z,21.48
2022-08-29T12:29:51.077Z,21.50
2022-08-29T12:30:55.493Z,21.52
2022-08-29T12:32:17.924Z,21.52
2022-08-29T12:33:04.335Z,21.52
2022-08-29T12:34:08.738Z,21.50
2022-08-29T12:35:13.168Z,21.49
2022-08-29T12:36:17.595Z,21.49
2022-08-29T12:37:22.023Z,21.47
2022-08-29T12:38:26.466Z,21.45
2022-08-29T12:39:30.901Z,21.44
2022-08-29T12:40:35.381Z,21.44
2022-08-29T12:41:39.745Z,21.44
2022-08-29T12:42:44.187Z,21.43
2022-08-29T12:43:48.625Z,21.42
2022-08-29T12:45:57.445Z,21.44
2022-08-29T12:47:01.968Z,21.44
2022-08-29T12:48:06.330Z,21.42
2022-08-29T12:49:10.760Z,21.40
2022-08-29T12:50:15.207Z,21.36
2022-08-29T12:51:19.685Z,21.33
2022-08-29T12:52:24.090Z,21.29
2022-08-29T12:53:28.505Z,21.27
2022-08-29T12:54:32.931Z,21.27
2022-08-29T12:55:37.320Z,21.30
2022-08-29T12:56:41.758Z,21.31
2022-08-29T12:57:46.179Z,21.33
2022-08-29T12:58:50.563Z,21.31
2022-08-29T12:59:54.975Z,21.28
2022-08-29T13:00:59.475Z,21.25
2022-08-29T13:02:03.813Z,21.23
2022-08-29T13:03:09.469Z,21.21
2022-08-29T13:04:12.712Z,21.17
2022-08-29T13:05:17.112Z,21.13
2022-08-29T13:06:21.600Z,21.10
2022-08-29T13:07:25.988Z,21.04
2022-08-29T13:08:30.415Z,21.00
2022-08-29T13:09:34.817Z,20.96
2022-08-29T13:10:39.217Z,20.90
2022-08-29T13:11:43.699Z,20.87
2022-08-29T13:12:48.056Z,20.85
2022-08-29T13:13:52.472Z,20.82
2022-08-29T13:14:56.918Z,20.81
2022-08-29T13:16:01.442Z,20.83
2022-08-29T13:17:05.819Z,20.84
2022-08-29T13:18:10.189Z,20.83
2022-08-29T13:19:14.577Z,20.82
2022-08-29T13:20:19.014Z,20.81
2022-08-29T13:21:23.422Z,20.81
2022-08-29T13:22:31.748Z,20.80
2022-08-29T13:23:32.312Z,20.79
2022-08-29T13:24:36.782Z,20.80
2022-08-29T13:25:41.157Z,20.83
2022-08-29T13:26:50.800Z,20.88
2022-08-29T13:27:49.953Z,20.90
2022-08-29T13:28:54.370Z,20.90
2022-08-29T13:29:58.858Z,20.90
2022-08-29T13:31:03.319Z,20.89
2022-08-29T13:32:07.644Z,20.88
2022-08-29T13:33:12.054Z,20.89
2022-08-29T13:34:16.483Z,20.90
2022-08-29T13:35:20.909Z,20.90
2022-08-29T13:36:25.363Z,20.89
2022-08-29T13:37:29.741Z,20.86
2022-08-29T13:38:34.253Z,20.86
2022-08-29T13:39:41.403Z,20.84
2022-08-29T13:40:43.194Z,20.83
2022-08-29T13:41:47.470Z,20.82
2022-08-29T13:42:51.868Z,20.80
2022-08-29T13:43:56.287Z,20.79
2022-08-29T13:45:00.676Z,20.76
2022-08-29T13:46:05.132Z,20.73
2022-08-29T13:47:09.486Z,20.69
2022-08-29T13:48:13.887Z,20.66
2022-08-29T13:49:18.314Z,20.64
2022-08-29T13:50:22.716Z,20.63
2022-08-29T13:51:27.237Z,20.61